Time;durP1;ratioP1;P1;durP2;ratioP2;P2;SDS_P1;SDS_P2;PMS_P1;PMS_P2;Temp;Humidity;BMP_temperature;BMP_pressure;BME280_temperature;BME280_humidity;BME280_pressure;Samples;Min_cycle;Max_cycle;Signal;HPM_P1;HPM_P2
2023/10/09 00:00:50;;;;;;;34.40;21.42;;;;;;;12.84;100.00;101959.91;5033473;28;20043;-63
2023/10/09 00:03:18;;;;;;;32.60;21.65;;;;;;;12.87;100.00;101957.31;5033277;28;20038;-63
2023/10/09 00:05:46;;;;;;;32.40;21.30;;;;;;;12.87;100.00;101946.69;5033576;28;20040;-63
2023/10/09 00:08:22;;;;;;;33.40;20.70;;;;;;;12.93;100.00;101950.28;5033181;28;20034;-64
2023/10/09 00:10:57;;;;;;;33.17;21.00;;;;;;;12.95;100.00;101948.53;5033073;28;20091;-64
2023/10/09 00:13:37;;;;;;;31.98;21.15;;;;;;;13.00;100.00;101946.81;5033069;28;20052;-63
2023/10/09 00:16:14;;;;;;;33.08;21.23;;;;;;;13.12;100.00;101946.97;5029464;28;20049;-64
2023/10/09 00:18:46;;;;;;;33.63;21.38;;;;;;;13.22;100.00;101926.69;5030284;28;20022;-63
2023/10/09 00:21:20;;;;;;;31.25;20.20;;;;;;;13.29;100.00;101931.22;5033275;28;20040;-62
2023/10/09 00:23:55;;;;;;;30.38;20.10;;;;;;;13.29;100.00;101944.47;5032898;28;20071;-65
2023/10/09 00:26:22;;;;;;;30.77;20.08;;;;;;;13.33;100.00;101942.78;5032961;28;20022;-63
2023/10/09 00:28:51;;;;;;;32.55;20.02;;;;;;;13.33;100.00;101935.69;5032858;28;20079;-64
2023/10/09 00:31:33;;;;;;;30.45;20.08;;;;;;;13.34;100.00;101924.22;5033270;28;20064;-65
2023/10/09 00:34:18;;;;;;;30.95;19.60;;;;;;;13.43;100.00;101920.78;5033041;28;20030;-66
2023/10/09 00:36:50;;;;;;;31.75;19.70;;;;;;;13.57;100.00;101918.22;5025521;28;20030;-67
2023/10/09 00:39:22;;;;;;;28.92;19.23;;;;;;;13.63;100.00;101915.66;5032796;28;20067;-66
2023/10/09 00:41:47;;;;;;;32.25;19.73;;;;;;;13.67;100.00;101912.13;5032975;28;20124;-66
2023/10/09 00:44:12;;;;;;;28.73;18.38;;;;;;;13.71;100.00;101905.94;5032929;28;20446;-65
2023/10/09 00:46:42;;;;;;;29.50;18.27;;;;;;;13.77;100.00;101902.47;5032544;28;20048;-65
2023/10/09 00:49:10;;;;;;;29.35;19.15;;;;;;;13.83;100.00;101898.97;5032787;28;20029;-66
2023/10/09 00:51:56;;;;;;;29.60;18.17;;;;;;;13.84;100.00;101911.38;5032642;28;20057;-66
2023/10/09 00:54:26;;;;;;;29.70;18.38;;;;;;;13.82;100.00;101914.03;5033042;28;20029;-66
2023/10/09 00:56:57;;;;;;;30.08;19.25;;;;;;;13.81;100.00;101917.56;5032924;28;20034;-66
2023/10/09 00:59:25;;;;;;;31.05;19.73;;;;;;;13.86;100.00;101926.47;5032744;28;20029;-66
2023/10/09 01:01:56;;;;;;;30.10;19.02;;;;;;;13.84;100.00;101922.88;5032490;28;20032;-66
2023/10/09 01:04:25;;;;;;;30.15;19.05;;;;;;;13.78;100.00;101914.88;5032898;28;20037;-66
2023/10/09 01:07:06;;;;;;;29.90;19.05;;;;;;;13.75;100.00;101910.41;5032673;28;20358;-67
2023/10/09 01:09:43;;;;;;;29.85;18.80;;;;;;;13.70;100.00;101905.94;5028445;28;20164;-65
2023/10/09 01:12:16;;;;;;;30.23;19.17;;;;;;;13.71;100.00;101911.28;5029417;28;20034;-67
2023/10/09 01:14:43;;;;;;;29.80;18.98;;;;;;;13.70;100.00;101903.28;5032378;28;20025;-66
2023/10/09 01:17:09;;;;;;;31.08;20.20;;;;;;;13.75;100.00;101912.19;5032539;28;20037;-67
2023/10/09 01:19:35;;;;;;;31.20;18.80;;;;;;;13.78;100.00;101902.47;5032342;28;20042;-64
2023/10/09 01:22:13;;;;;;;29.38;18.80;;;;;;;13.84;100.00;101906.94;5032214;28;20125;-67
2023/10/09 01:24:39;;;;;;;29.83;18.77;;;;;;;13.84;100.00;101909.59;5029237;28;20037;-62
2023/10/09 01:27:12;;;;;;;29.25;18.75;;;;;;;13.85;100.00;101905.16;5032660;28;20088;-66
2023/10/09 01:29:41;;;;;;;29.58;19.13;;;;;;;13.89;100.00;101914.94;5032348;28;20033;-67
2023/10/09 01:32:06;;;;;;;30.40;19.50;;;;;;;13.88;100.00;101919.38;5032230;28;20021;-67
2023/10/09 01:34:44;;;;;;;30.48;19.40;;;;;;;13.90;100.00;101916.75;5032358;28;20508;-66
2023/10/09 01:37:18;;;;;;;30.08;19.58;;;;;;;13.92;100.00;101918.53;5029288;28;20543;-67
2023/10/09 01:39:45;;;;;;;30.92;19.42;;;;;;;13.90;100.00;101916.75;5032333;28;20397;-66
2023/10/09 01:42:10;;;;;;;31.00;19.27;;;;;;;13.86;100.00;101910.53;5032137;28;20025;-67
2023/10/09 01:44:42;;;;;;;29.45;18.67;;;;;;;13.90;100.00;101911.41;5032353;28;20472;-69
2023/10/09 01:47:13;;;;;;;29.02;18.35;;;;;;;13.91;100.00;101908.78;5030827;28;20029;-67
2023/10/09 01:49:43;;;;;;;30.08;18.33;;;;;;;13.94;100.00;101898.16;5032058;28;20052;-68
2023/10/09 01:52:15;;;;;;;28.42;17.80;;;;;;;14.03;100.00;101907.09;5032019;28;20109;-68
2023/10/09 01:54:42;;;;;;;28.70;17.48;;;;;;;14.04;100.00;101898.25;5032233;28;20030;-69
2023/10/09 01:57:22;;;;;;;28.70;17.77;;;;;;;14.04;100.00;101907.09;5032736;28;20109;-67
2023/10/09 01:59:49;;;;;;;27.85;17.38;;;;;;;14.04;100.00;101906.22;5050976;28;20030;-68
2023/10/09 02:02:27;;;;;;;30.15;17.77;;;;;;;14.02;100.00;101899.97;5035846;28;20049;-68
2023/10/09 02:04:54;;;;;;;29.35;17.65;;;;;;;14.01;100.00;101891.13;5036025;28;20423;-68
2023/10/09 02:07:27;;;;;;;27.65;17.67;;;;;;;14.02;100.00;101890.22;5035360;28;20026;-68
2023/10/09 02:09:54;;;;;;;29.20;17.70;;;;;;;14.05;100.00;101897.34;5035314;28;20033;-68
2023/10/09 02:12:21;;;;;;;28.67;17.25;;;;;;;14.08;100.00;101895.59;5034172;28;20034;-68
2023/10/09 02:14:47;;;;;;;28.73;17.27;;;;;;;14.06;100.00;101891.16;5035786;28;20037;-68
2023/10/09 02:17:17;;;;;;;27.80;17.30;;;;;;;14.02;100.00;101884.91;5035319;28;20035;-69
2023/10/09 02:19:48;;;;;;;28.38;17.67;;;;;;;14.03;100.00;101888.47;5035482;28;20464;-68
2023/10/09 02:22:14;;;;;;;28.42;17.40;;;;;;;14.01;100.00;101882.25;5035443;28;20377;-69
2023/10/09 02:24:59;;;;;;;28.75;18.08;;;;;;;14.02;100.00;101881.38;5035115;28;20025;-69
2023/10/09 02:27:44;;;;;;;28.85;17.52;;;;;;;14.03;100.00;101878.72;5035171;28;20025;-67
2023/10/09 02:30:19;;;;;;;27.75;16.95;;;;;;;14.02;100.00;101881.38;5032049;28;20044;-69
2023/10/09 02:32:49;;;;;;;27.17;17.27;;;;;;;14.01;100.00;101877.84;5034123;28;20112;-69
2023/10/09 02:35:28;;;;;;;27.10;17.45;;;;;;;14.00;100.00;101867.19;5034870;28;20108;-68
2023/10/09 02:37:53;;;;;;;28.58;17.85;;;;;;;13.99;100.00;101868.06;5035154;28;20465;-68
2023/10/09 02:40:24;;;;;;;29.75;18.55;;;;;;;13.98;100.00;101866.28;5034835;28;20033;-68
2023/10/09 02:42:52;;;;;;;29.20;18.33;;;;;;;14.01;100.00;101861.88;5034798;28;20029;-68
2023/10/09 02:45:18;;;;;;;28.92;17.67;;;;;;;14.00;100.00;101853.91;5034995;28;20029;-69
2023/10/09 02:47:48;;;;;;;29.80;17.80;;;;;;;13.99;100.00;101846.81;5034839;28;20079;-69
2023/10/09 02:50:20;;;;;;;28.20;17.92;;;;;;;13.99;100.00;101850.34;5034515;28;20408;-69
2023/10/09 02:52:59;;;;;;;28.45;17.55;;;;;;;13.95;100.00;101849.44;5034890;28;20041;-69
2023/10/09 02:55:25;;;;;;;28.38;17.08;;;;;;;13.94;100.00;101854.75;5034846;28;20061;-68
2023/10/09 02:57:56;;;;;;;28.10;17.10;;;;;;;13.91;100.00;101852.06;5034681;28;20073;-68
2023/10/09 03:00:29;;;;;;;27.25;17.60;;;;;;;13.90;100.00;101851.16;5034625;28;20033;-66
2023/10/09 03:02:58;;;;;;;28.27;16.98;;;;;;;13.90;100.00;101864.47;5034652;28;20072;-65
2023/10/09 03:05:23;;;;;;;28.45;17.38;;;;;;;13.91;100.00;101862.72;5034810;28;20120;-66
2023/10/09 03:07:51;;;;;;;27.77;17.55;;;;;;;13.88;100.00;101858.25;5034575;28;20104;-66
2023/10/09 03:10:17;;;;;;;28.52;17.85;;;;;;;13.87;100.00;101859.13;5034169;28;20125;-66
2023/10/09 03:12:43;;;;;;;29.00;17.25;;;;;;;13.90;100.00;101861.81;5034370;28;20108;-65
2023/10/09 03:15:09;;;;;;;29.60;18.20;;;;;;;13.91;100.00;101860.94;5034536;28;20026;-64
2023/10/09 03:17:34;;;;;;;28.40;17.38;;;;;;;13.93;100.00;101856.50;5034182;28;20033;-66
2023/10/09 03:20:12;;;;;;;28.10;18.10;;;;;;;13.95;100.00;101848.56;5034332;28;20056;-66
2023/10/09 03:22:38;;;;;;;29.33;17.77;;;;;;;13.92;100.00;101838.78;5031062;28;20029;-65
2023/10/09 03:25:11;;;;;;;27.33;17.17;;;;;;;13.93;100.00;101824.59;5034035;28;20433;-65
2023/10/09 03:27:41;;;;;;;28.60;17.55;;;;;;;13.88;100.00;101830.81;5033866;28;20473;-65
2023/10/09 03:30:10;;;;;;;28.17;16.55;;;;;;;13.88;100.00;101836.13;5030815;28;20075;-66
2023/10/09 03:32:35;;;;;;;27.38;17.08;;;;;;;13.83;100.00;101836.06;5030169;28;20064;-64
2023/10/09 03:35:03;;;;;;;27.95;17.75;;;;;;;13.85;100.00;101834.31;5033704;28;20057;-63
2023/10/09 03:37:39;;;;;;;27.95;16.83;;;;;;;13.84;100.00;101826.34;5033944;28;20029;-66
2023/10/09 03:40:07;;;;;;;29.20;18.08;;;;;;;13.86;100.00;101833.44;5030166;28;20132;-65
2023/10/09 03:42:36;;;;;;;28.58;17.27;;;;;;;13.86;100.00;101819.25;5029896;28;20136;-66
2023/10/09 03:45:03;;;;;;;28.40;16.88;;;;;;;13.86;100.00;101809.53;5033619;28;20053;-64
2023/10/09 03:47:29;;;;;;;28.42;17.13;;;;;;;13.85;100.00;101817.47;5034009;28;20033;-65
2023/10/09 03:49:55;;;;;;;28.40;17.65;;;;;;;13.84;100.00;101819.25;5033463;28;20171;-63
2023/10/09 03:52:25;;;;;;;28.13;16.90;;;;;;;13.82;100.00;101823.69;5033765;28;20384;-62
2023/10/09 03:54:50;;;;;;;27.92;16.75;;;;;;;13.80;100.00;101820.09;5033700;28;20079;-63
2023/10/09 03:57:19;;;;;;;27.65;17.75;;;;;;;13.76;100.00;101821.84;5033670;28;20381;-65
2023/10/09 03:59:46;;;;;;;29.02;17.48;;;;;;;13.72;100.00;101819.19;5033369;28;20034;-64
2023/10/09 04:02:16;;;;;;;28.27;17.15;;;;;;;13.73;100.00;101823.59;5033497;28;20029;-63
2023/10/09 04:04:46;;;;;;;28.55;17.30;;;;;;;13.72;100.00;101821.84;5033440;28;20041;-64
2023/10/09 04:07:13;;;;;;;28.65;17.50;;;;;;;13.72;100.00;101827.16;5033160;28;20120;-64
2023/10/09 04:09:44;;;;;;;29.15;17.67;;;;;;;13.71;100.00;101822.72;5033145;28;20046;-62
2023/10/09 04:14:49;;;;;;;28.58;17.65;;;;;;;13.67;100.00;101828.88;5033440;28;20064;-65
2023/10/09 04:17:33;;;;;;;27.98;16.90;;;;;;;13.64;100.00;101813.78;5030653;28;20032;-65
2023/10/09 04:20:24;;;;;;;28.10;18.38;;;;;;;13.65;100.00;101810.25;5032684;28;20034;-65
2023/10/09 04:22:51;;;;;;;28.17;17.30;;;;;;;13.65;100.00;101815.56;5030380;28;20120;-66
2023/10/09 04:25:27;;;;;;;28.90;17.92;;;;;;;13.66;100.00;101790.78;5033269;28;20045;-65
2023/10/09 04:28:09;;;;;;;28.10;18.20;;;;;;;13.66;100.00;101801.44;5033152;28;20026;-66
2023/10/09 04:30:46;;;;;;;28.17;18.00;;;;;;;13.68;100.00;101806.75;5029261;28;20037;-66
2023/10/09 04:44:18;;;;;;;28.85;17.90;;;;;;;13.69;100.00;101848.34;5024097;28;20032;-66
2023/10/09 04:57:45;;;;;;;30.25;19.27;;;;;;;13.70;100.00;101831.53;5029252;28;20128;-66
2023/10/09 05:02:56;;;;;;;32.05;19.35;;;;;;;13.76;100.00;101840.47;5032943;28;20037;-66
2023/10/09 05:08:20;;;;;;;29.13;18.60;;;;;;;13.75;100.00;101843.09;5030759;28;20033;-69
2023/10/09 05:13:42;;;;;;;30.25;19.45;;;;;;;13.76;100.00;101839.56;5028959;28;20049;-68
2023/10/09 05:16:28;;;;;;;30.52;19.73;;;;;;;13.83;100.00;101848.47;5030500;28;20071;-70
2023/10/09 05:18:56;;;;;;;29.75;19.83;;;;;;;13.87;100.00;101843.19;5028598;28;20029;-69
2023/10/09 05:32:15;;;;;;;30.45;19.42;;;;;;;13.94;100.00;101849.44;5030762;28;20400;-70
2023/10/09 05:37:33;;;;;;;30.90;20.27;;;;;;;13.93;100.00;101867.13;5033803;28;20037;-70
2023/10/09 05:40:22;;;;;;;32.25;20.55;;;;;;;13.93;100.00;101875.09;5035836;28;20029;-69
2023/10/09 05:42:59;;;;;;;29.77;20.17;;;;;;;13.93;100.00;101864.47;5032377;28;20030;-69
2023/10/09 05:50:39;;;;;;;30.45;20.83;;;;;;;13.97;100.00;101864.53;5035496;28;20528;-70
2023/10/09 05:53:07;;;;;;;31.35;20.63;;;;;;;13.98;100.00;101863.63;5035712;28;20030;-71
2023/10/09 05:57:09;;;;;;;31.70;20.95;;;;;;;13.99;100.00;101862.75;5035545;28;20065;-70
2023/10/09 06:01:05;;;;;;;32.60;21.13;;;;;;;14.03;100.00;101875.19;5033951;28;20128;-70
2023/10/09 06:06:44;;;;;;;32.33;21.40;;;;;;;14.09;100.00;101893.81;5029838;28;20033;-63
2023/10/09 06:11:55;;;;;;;32.83;21.80;;;;;;;14.08;100.00;101900.94;5034095;28;20134;-64
2023/10/09 06:14:25;;;;;;;31.88;21.17;;;;;;;14.14;100.00;101897.41;5035586;28;20033;-64
2023/10/09 06:27:53;;;;;;;32.35;21.98;;;;;;;14.19;100.00;101890.34;5030607;28;20396;-62
2023/10/09 06:32:57;;;;;;;32.55;22.73;;;;;;;14.18;100.00;101888.56;5033234;28;20041;-62
2023/10/09 06:35:25;;;;;;;32.75;22.17;;;;;;;14.22;100.00;101893.00;5034778;28;20049;-62
2023/10/09 06:46:43;;;;;;;33.58;22.25;;;;;;;14.28;100.00;101903.72;5044805;28;20500;-62
2023/10/09 06:48:56;;;;;;;32.42;22.90;;;;;;;14.29;100.00;101892.19;5043100;28;20041;-62
2023/10/09 06:58:55;;;;;;;33.35;23.17;;;;;;;14.35;100.00;101880.69;5034784;28;20037;-64
2023/10/09 07:01:42;;;;;;;33.63;22.52;;;;;;;14.38;100.00;101877.16;5034408;28;20112;-63
2023/10/09 07:04:45;;;;;;;32.85;21.77;;;;;;;14.42;100.00;101863.00;5031413;28;20029;-62
2023/10/09 07:07:09;;;;;;;33.38;21.67;;;;;;;14.46;100.00;101854.16;5030691;28;20037;-63
2023/10/09 07:10:28;;;;;;;31.70;21.52;;;;;;;14.48;100.00;101852.38;5034319;28;20396;-63
2023/10/09 07:12:32;;;;;;;31.33;20.77;;;;;;;14.50;100.00;101834.63;5033842;28;20042;-63
2023/10/09 07:15:01;;;;;;;31.75;20.98;;;;;;;14.52;100.00;101832.88;5033986;28;20032;-63
2023/10/09 07:20:13;;;;;;;32.45;21.23;;;;;;;14.58;100.00;101832.03;5033299;28;20489;-63
2023/10/09 07:22:48;;;;;;;31.58;20.73;;;;;;;14.63;100.00;101836.50;5034059;28;20029;-62
2023/10/09 07:25:15;;;;;;;32.95;20.63;;;;;;;14.69;100.00;101829.41;5034165;28;20064;-62
2023/10/09 07:27:51;;;;;;;31.75;20.40;;;;;;;14.69;100.00;101845.38;5034083;28;20057;-62
2023/10/09 07:32:55;;;;;;;32.67;20.13;;;;;;;14.74;100.00;101883.56;5032864;28;20072;-63
2023/10/09 07:38:08;;;;;;;30.95;20.92;;;;;;;14.74;100.00;101904.84;5033010;28;20065;-62
2023/10/09 07:48:56;;;;;;;31.92;21.50;;;;;;;14.78;100.00;101920.84;5010457;28;20079;-62
2023/10/09 07:51:23;;;;;;;31.73;20.50;;;;;;;14.79;100.00;101919.97;5033307;28;20115;-62
2023/10/09 07:53:57;;;;;;;32.25;20.83;;;;;;;14.83;100.00;101902.22;5033300;28;20384;-62
2023/10/09 07:56:30;;;;;;;30.90;20.58;;;;;;;14.79;100.00;101890.69;5032785;28;20051;-62
2023/10/09 07:59:00;;;;;;;34.17;20.70;;;;;;;14.82;100.00;101889.78;5033332;28;20100;-69
2023/10/09 08:03:57;;;;;;;30.63;20.95;;;;;;;14.90;100.00;101879.19;5033122;28;20043;-69
2023/10/09 08:06:38;;;;;;;31.67;20.83;;;;;;;14.92;100.00;101878.28;5033080;28;20489;-69
2023/10/09 08:14:20;;;;;;;30.92;20.60;;;;;;;15.08;100.00;101902.28;5033344;28;20037;-69
2023/10/09 08:16:46;;;;;;;30.50;19.73;;;;;;;15.18;100.00;101896.09;5033298;28;20380;-69
2023/10/09 08:19:32;;;;;;;32.28;20.60;;;;;;;15.27;100.00;101888.09;5031707;28;20033;-69
2023/10/09 08:24:42;;;;;;;29.15;19.60;;;;;;;15.49;100.00;101898.78;5029402;28;20064;-69
2023/10/09 08:30:28;;;;;;;30.15;19.75;;;;;;;15.62;100.00;101879.25;5033251;28;20052;-70
2023/10/09 08:32:42;;;;;;;30.33;19.95;;;;;;;15.73;100.00;101881.00;5032945;28;20527;-70
2023/10/09 08:37:53;;;;;;;29.77;19.25;;;;;;;15.95;100.00;101856.16;5030627;28;20083;-69
2023/10/09 08:40:32;;;;;;;30.70;19.58;;;;;;;16.05;100.00;101859.69;5032961;28;20029;-69
2023/10/09 08:43:09;;;;;;;28.98;19.40;;;;;;;16.11;100.00;101853.47;5032896;28;20415;-69
2023/10/09 08:45:39;;;;;;;30.02;19.85;;;;;;;16.16;100.00;101851.66;5032874;28;20025;-70
2023/10/09 08:48:12;;;;;;;29.42;19.27;;;;;;;16.17;100.00;101861.44;5032558;28;20057;-69
2023/10/09 08:50:37;;;;;;;28.50;19.17;;;;;;;16.19;100.00;101848.97;5032365;28;20440;-68
2023/10/09 08:53:03;;;;;;;31.25;19.83;;;;;;;16.26;100.00;101841.84;5047856;28;20059;-68
2023/10/09 08:55:29;;;;;;;29.13;18.73;;;;;;;16.48;100.00;101847.97;5032755;28;20431;-68
2023/10/09 08:57:58;;;;;;;29.80;19.05;;;;;;;16.66;100.00;101845.22;5032538;28;20063;-68
2023/10/09 09:00:23;;;;;;;29.92;18.10;;;;;;;16.88;100.00;101847.81;5032530;28;20029;-68
2023/10/09 09:03:00;;;;;;;28.05;18.02;;;;;;;17.01;100.00;101852.19;5032848;28;20040;-69
2023/10/09 09:05:28;;;;;;;29.20;18.13;;;;;;;17.16;100.00;101851.19;5032369;28;20595;-68
2023/10/09 09:07:56;;;;;;;29.77;18.17;;;;;;;17.34;100.00;101849.28;5036223;28;20030;-68
2023/10/09 09:10:38;;;;;;;28.02;17.35;;;;;;;17.31;100.00;101844.84;5032096;28;20039;-62
2023/10/09 09:13:04;;;;;;;28.25;18.15;;;;;;;17.35;100.00;101851.94;5036727;28;20048;-64
2023/10/09 09:15:30;;;;;;;29.27;18.35;;;;;;;17.65;100.00;101865.97;5036375;28;20375;-63
2023/10/09 09:18:06;;;;;;;28.05;18.00;;;;;;;17.95;100.00;101874.59;5041714;28;20025;-67
2023/10/09 09:20:36;;;;;;;28.88;17.70;;;;;;;18.10;100.00;101881.56;5046184;28;20064;-65
2023/10/09 09:23:05;;;;;;;30.13;18.23;;;;;;;18.25;100.00;101888.56;5046622;28;20029;-64
2023/10/09 09:25:45;;;;;;;28.67;17.90;;;;;;;18.21;100.00;101886.84;5043444;28;20029;-66
2023/10/09 09:28:21;;;;;;;28.92;18.27;;;;;;;18.23;100.00;101887.69;5032930;28;20110;-62
2023/10/09 09:30:54;;;;;;;29.63;18.92;;;;;;;18.42;100.00;101899.06;5035986;28;20029;-66
2023/10/09 09:33:39;;;;;;;29.58;18.73;;;;;;;18.45;100.00;101885.69;5035034;28;20156;-62
2023/10/09 09:36:06;;;;;;;30.77;19.40;;;;;;;18.51;100.00;101895.41;5038711;28;20029;-62
2023/10/09 09:38:47;;;;;;;29.27;18.23;;;;;;;18.59;100.00;101893.53;5046736;28;20025;-62
2023/10/09 09:41:23;;;;;;;31.50;18.92;;;;;;;18.45;100.00;101905.28;5035563;28;20500;-62
2023/10/09 09:44:01;;;;;;;29.38;18.95;;;;;;;18.51;100.00;101900.75;5035761;28;20082;-65
2023/10/09 09:46:35;;;;;;;29.70;18.98;;;;;;;18.63;100.00;101911.31;5035498;28;20026;-66
2023/10/09 09:49:01;;;;;;;28.17;19.15;;;;;;;18.59;100.00;101909.59;5035484;28;20034;-67
2023/10/09 09:51:30;;;;;;;30.27;19.20;;;;;;;18.61;100.00;101914.03;5040156;28;20049;-67
2023/10/09 09:53:56;;;;;;;29.95;20.10;;;;;;;18.52;100.00;101907.88;5035269;28;20076;-68
2023/10/09 09:56:24;;;;;;;31.40;20.50;;;;;;;18.37;100.00;101920.53;5035303;28;20069;-68
2023/10/09 09:58:53;;;;;;;31.20;20.45;;;;;;;18.38;100.00;101918.78;5035555;28;20116;-67
2023/10/09 10:01:26;;;;;;;30.67;19.45;;;;;;;18.49;100.00;101916.84;5035406;28;20034;-68
2023/10/09 10:04:00;;;;;;;30.38;20.63;;;;;;;18.69;100.00;101908.56;5035297;28;20485;-69
2023/10/09 10:06:29;;;;;;;30.20;20.30;;;;;;;18.74;100.00;101906.72;5038501;28;20461;-64
2023/10/09 10:08:54;;;;;;;30.15;21.05;;;;;;;18.85;100.00;101916.41;5035360;28;20025;-65
2023/10/09 10:11:42;;;;;;;30.48;21.00;;;;;;;19.01;100.00;101911.78;5035255;28;20128;-65
2023/10/09 10:14:11;;;;;;;30.77;21.08;;;;;;;18.99;100.00;101906.44;5033152;28;20049;-64
2023/10/09 10:17:17;;;;;;;32.38;22.10;;;;;;;18.99;100.00;101923.38;5047230;28;20381;-66
2023/10/09 10:20:25;;;;;;;31.73;21.58;;;;;;;18.99;100.00;101925.19;5036640;28;20358;-64
2023/10/09 10:22:50;;;;;;;32.80;21.85;;;;;;;19.05;100.00;101909.03;5037762;28;20401;-65
2023/10/09 10:25:32;;;;;;;31.55;22.13;;;;;;;19.17;100.00;101914.19;5045837;28;20123;-65
2023/10/09 10:28:42;;;;;;;32.42;22.38;;;;;;;19.29;100.00;101918.47;5032521;28;20112;-64
2023/10/09 10:31:09;;;;;;;32.83;22.55;;;;;;;19.19;100.00;101915.97;5043975;28;20120;-66
2023/10/09 10:33:55;;;;;;;33.42;22.23;;;;;;;19.38;100.00;101921.94;5042318;28;20551;-66
2023/10/09 10:36:26;;;;;;;33.90;23.45;;;;;;;19.50;100.00;101922.63;5043700;28;20025;-63
2023/10/09 10:39:07;;;;;;;32.50;22.77;;;;;;;19.73;100.00;101913.34;5045450;28;20112;-63
2023/10/09 10:41:36;;;;;;;31.88;22.83;;;;;;;19.76;100.00;101910.59;5045548;28;20117;-66
2023/10/09 10:46:51;;;;;;;33.78;22.75;;;;;;;19.83;100.00;101901.56;5044587;28;20039;-63
2023/10/09 10:49:21;;;;;;;31.05;22.55;;;;;;;19.79;100.00;101902.53;5039608;28;20614;-64
2023/10/09 10:51:53;;;;;;;31.40;22.77;;;;;;;19.71;100.00;101899.03;5042311;28;20055;-65
2023/10/09 10:57:00;;;;;;;33.75;23.23;;;;;;;20.15;100.00;101899.19;5043201;28;20362;-64
2023/10/09 10:59:36;;;;;;;33.45;23.10;;;;;;;19.98;100.00;101905.75;5045852;28;20029;-65
2023/10/09 11:04:44;;;;;;;30.02;21.42;;;;;;;20.24;100.00;101903.50;5044269;28;20033;-64
2023/10/09 11:07:16;;;;;;;32.00;22.83;;;;;;;20.19;100.00;101907.16;5039541;28;20030;-71
2023/10/09 11:15:56;;;;;;;32.78;22.40;;;;;;;20.75;100.00;101916.84;5034085;28;20062;-69
2023/10/09 11:18:26;;;;;;;30.77;22.17;;;;;;;21.14;100.00;101911.47;5034056;28;20021;-68
2023/10/09 11:26:21;;;;;;;27.08;16.58;;;;;;;21.92;100.00;101903.31;5034033;28;20432;-68
2023/10/09 11:29:12;;;;;;;28.25;17.35;;;;;;;22.40;100.00;101907.44;5030245;28;20369;-67
2023/10/09 11:31:38;;;;;;;26.73;15.43;;;;;;;22.55;100.00;101897.13;5033276;28;20065;-68
2023/10/09 11:34:28;;;;;;;26.70;15.48;;;;;;;22.01;100.00;101904.88;5034036;28;20404;-65
2023/10/09 11:36:55;;;;;;;28.00;15.52;;;;;;;21.74;100.00;101893.00;5033987;28;20084;-68
2023/10/09 11:39:34;;;;;;;26.48;15.25;;;;;;;21.93;100.00;101894.31;5033904;28;20033;-66
2023/10/09 11:42:04;;;;;;;27.58;14.70;;;;;;;22.32;100.00;101889.69;5033727;28;20033;-66
2023/10/09 11:44:39;;;;;;;26.65;15.20;;;;;;;22.48;100.00;101901.81;5033693;28;20030;-67
2023/10/09 11:54:58;;;;;;;25.53;14.27;;;;;;;22.97;100.00;101907.56;5033768;28;20065;-69
2023/10/09 11:57:30;;;;;;;26.27;14.13;;;;;;;23.13;100.00;101910.69;5032225;28;20469;-64
2023/10/09 11:59:56;;;;;;;;;;;;;;;23.46;100.00;101891.63;5033934;28;20029;-66
2023/10/09 12:02:21;;;;;;;25.58;12.68;;;;;;;22.54;100.00;101896.25;5033348;28;20439;-67
2023/10/09 12:04:46;;;;;;;26.00;13.60;;;;;;;21.96;100.00;101901.44;5033326;28;20026;-65
2023/10/09 12:07:12;;;;;;;23.40;12.68;;;;;;;21.97;100.00;101899.63;5033441;28;20116;-65
2023/10/09 12:09:37;;;;;;;26.52;13.95;;;;;;;21.97;100.00;101899.63;5033323;28;20365;-67
2023/10/09 12:12:07;;;;;;;23.63;12.98;;;;;;;21.87;100.00;101899.88;5033330;28;20404;-68
2023/10/09 12:14:37;;;;;;;24.55;13.30;;;;;;;22.01;100.00;101896.78;5033620;28;20037;-68
2023/10/09 12:17:07;;;;;;;25.23;12.10;;;;;;;22.04;100.00;101891.31;5033026;28;20491;-68
2023/10/09 12:19:34;;;;;;;23.90;12.00;;;;;;;22.16;100.00;101887.41;5040614;28;20032;-70
2023/10/09 12:22:01;;;;;;;23.50;11.05;;;;;;;22.07;100.00;101887.69;5041010;28;20480;-68
2023/10/09 12:24:29;;;;;;;22.88;10.60;;;;;;;22.06;100.00;101888.59;5042151;28;20025;-71
2023/10/09 12:26:56;;;;;;;24.00;10.57;;;;;;;22.07;100.00;101882.28;5041473;28;20029;-65
2023/10/09 12:29:22;;;;;;;22.52;9.50;;;;;;;22.17;100.00;101881.09;5040074;28;20075;-64
2023/10/09 12:31:47;;;;;;;23.58;10.10;;;;;;;22.11;100.00;101878.59;5047334;28;20025;-68
2023/10/09 12:34:16;;;;;;;23.00;10.05;;;;;;;21.92;100.00;101880.91;5032950;28;20100;-71
2023/10/09 12:36:45;;;;;;;23.88;9.90;;;;;;;21.91;100.00;101887.19;5032678;28;20480;-67
2023/10/09 12:39:17;;;;;;;23.75;9.82;;;;;;;21.76;100.00;101880.44;5032669;28;20032;-70
2023/10/09 12:41:43;;;;;;;;;;;;;;;22.14;100.00;101878.50;5029750;28;20107;-71
2023/10/09 12:44:14;;;;;;;22.52;9.80;;;;;;;22.21;100.00;101877.41;5032816;28;19979;-71
2023/10/09 12:46:51;;;;;;;22.08;8.95;;;;;;;22.14;100.00;101870.44;5029104;28;20473;-71
2023/10/09 12:49:26;;;;;;;22.98;9.73;;;;;;;22.10;100.00;101866.91;5030313;28;20045;-69
2023/10/09 12:51:53;;;;;;;22.00;9.70;;;;;;;22.09;100.00;101872.34;5032282;28;20532;-71
2023/10/09 12:54:29;;;;;;;23.00;8.75;;;;;;;22.10;100.00;101858.84;5032620;28;20116;-68
2023/10/09 12:56:59;;;;;;;22.40;9.27;;;;;;;22.16;100.00;101856.91;5031443;28;20029;-63
2023/10/09 12:59:24;;;;;;;21.98;8.30;;;;;;;22.33;100.00;101841.19;5033996;28;20040;-63
2023/10/09 13:01:57;;;;;;;22.48;9.30;;;;;;;22.43;100.00;101848.06;5032481;28;20029;-64
2023/10/09 13:04:23;;;;;;;22.50;8.32;;;;;;;22.50;100.00;101838.00;5035557;28;20028;-66
2023/10/09 13:06:51;;;;;;;21.23;8.40;;;;;;;22.76;100.00;101847.09;5032562;28;20033;-66
2023/10/09 13:09:42;;;;;;;20.80;8.48;;;;;;;22.91;100.00;101846.63;5032212;28;20022;-69
2023/10/09 13:12:07;;;;;;;22.75;8.02;;;;;;;23.26;100.00;101846.47;5030885;28;20469;-65
2023/10/09 13:14:35;;;;;;;22.00;8.50;;;;;;;23.40;100.00;101832.50;5032523;28;20038;-64
2023/10/09 13:17:08;;;;;;;20.67;8.40;;;;;;;23.29;100.00;101838.25;5032293;28;20029;-65
2023/10/09 13:19:33;;;;;;;21.23;8.32;;;;;;;23.05;100.00;101834.50;5032272;28;20064;-67
2023/10/09 13:22:02;;;;;;;21.60;8.18;;;;;;;22.70;100.00;101842.81;5029942;28;20039;-67
2023/10/09 13:24:29;;;;;;;22.65;9.02;;;;;;;22.70;100.00;101841.91;5032038;28;20026;-68
2023/10/09 13:26:58;;;;;;;22.40;9.48;;;;;;;22.50;100.00;101847.88;5042311;28;20481;-64
2023/10/09 13:29:23;;;;;;;20.60;8.65;;;;;;;22.60;100.00;101858.34;5032165;28;20139;-64
2023/10/09 13:31:52;;;;;;;22.98;9.25;;;;;;;22.80;100.00;101862.25;5031776;28;20488;-64
2023/10/09 13:34:18;;;;;;;22.17;9.38;;;;;;;22.90;100.00;101852.06;5032365;28;20034;-64
2023/10/09 13:36:52;;;;;;;22.70;9.07;;;;;;;23.23;100.00;101846.56;5031647;28;20697;-63
2023/10/09 13:41:48;;;;;;;22.00;8.98;;;;;;;24.52;100.00;101851.88;5032179;28;20040;-64
2023/10/09 13:44:14;;;;;;;22.25;8.60;;;;;;;24.83;100.00;101859.72;5032257;28;20083;-68
2023/10/09 13:46:42;;;;;;;21.90;8.15;;;;;;;24.50;100.00;101853.78;5031870;28;20061;-70
2023/10/09 13:49:12;;;;;;;21.42;8.45;;;;;;;24.10;100.00;101857.97;5031739;28;20044;-69
2023/10/09 13:51:44;;;;;;;21.98;8.60;;;;;;;24.04;100.00;101856.38;5042795;28;20407;-68
2023/10/09 13:54:28;;;;;;;21.58;8.73;;;;;;;24.20;100.00;101856.69;5038278;28;20489;-71